sensor_id;sensor_type;location;lat;lon;timestamp;noise_LAeq;noise_LA_min;noise_LA_max;noise_LA01;noise_LA95
1754;Laerm;58380;48.312;9.246;2023-05-10T07:36:00;51.93;39.60;74.10;;
1754;Laerm;58380;48.312;9.246;2023-05-10T07:38:25;49.86;36.55;63.22;;
1754;Laerm;58380;48.312;9.246;2023-05-10T07:40:51;48.94;38.62;63.62;;
1754;Laerm;58380;48.312;9.246;2023-05-10T07:43:16;48.78;37.76;60.54;;
1754;Laerm;58380;48.312;9.246;2023-05-10T07:45:41;48.39;36.22;65.30;;
1754;Laerm;58380;48.312;9.246;2023-05-10T07:48:07;49.08;39.57;61.72;;
1754;Laerm;58380;48.312;9.246;2023-05-10T07:50:33;51.16;39.55;64.61;;
1754;Laerm;58380;48.312;9.246;2023-05-10T07:52:58;49.45;35.54;63.85;;
1754;Laerm;58380;48.312;9.246;2023-05-10T07:55:24;50.88;40.02;68.65;;
1754;Laerm;58380;48.312;9.246;2023-05-10T07:57:49;55.30;41.95;72.73;;
1754;Laerm;58380;48.312;9.246;2023-05-10T08:00:19;52.83;39.62;69.94;;
1754;Laerm;58380;48.312;9.246;2023-05-10T08:02:47;49.31;38.46;63.89;;
1754;Laerm;58380;48.312;9.246;2023-05-10T08:05:13;48.36;37.36;69.75;;
1754;Laerm;58380;48.312;9.246;2023-05-10T08:07:38;53.95;39.75;70.60;;
1754;Laerm;58380;48.312;9.246;2023-05-10T08:10:05;51.48;38.29;66.69;;
1754;Laerm;58380;48.312;9.246;2023-05-10T08:12:30;52.68;39.64;78.47;;
1754;Laerm;58380;48.312;9.246;2023-05-10T08:14:57;50.54;37.80;67.82;;
1754;Laerm;58380;48.312;9.246;2023-05-10T08:17:22;51.20;37.90;63.07;;
1754;Laerm;58380;48.312;9.246;2023-05-10T08:19:48;51.55;39.80;64.82;;
1754;Laerm;58380;48.312;9.246;2023-05-10T08:22:13;50.18;38.06;64.77;;
1754;Laerm;58380;48.312;9.246;2023-05-10T08:24:38;51.49;40.61;64.41;;
1754;Laerm;58380;48.312;9.246;2023-05-10T08:27:05;53.78;40.68;64.81;;
1754;Laerm;58380;48.312;9.246;2023-05-10T08:29:31;51.67;34.97;68.88;;
1754;Laerm;58380;48.312;9.246;2023-05-10T08:31:56;52.63;35.40;71.38;;
1754;Laerm;58380;48.312;9.246;2023-05-10T08:34:21;54.60;38.46;77.45;;
1754;Laerm;58380;48.312;9.246;2023-05-10T08:36:47;53.04;36.25;73.19;;
1754;Laerm;58380;48.312;9.246;2023-05-10T08:39:12;48.78;36.64;71.17;;
1754;Laerm;58380;48.312;9.246;2023-05-10T08:41:39;52.70;38.00;80.05;;
1754;Laerm;58380;48.312;9.246;2023-05-10T08:44:09;52.56;38.07;73.67;;
1754;Laerm;58380;48.312;9.246;2023-05-10T08:46:37;50.31;37.59;64.46;;
1754;Laerm;58380;48.312;9.246;2023-05-10T08:49:08;49.52;34.56;70.65;;
1754;Laerm;58380;48.312;9.246;2023-05-10T08:51:40;53.13;40.17;76.27;;
1754;Laerm;58380;48.312;9.246;2023-05-10T08:54:09;57.07;42.25;85.66;;
1754;Laerm;58380;48.312;9.246;2023-05-10T08:56:36;53.63;42.35;75.82;;
1754;Laerm;58380;48.312;9.246;2023-05-10T08:59:01;55.48;41.22;84.89;;
1754;Laerm;58380;48.312;9.246;2023-05-10T09:01:28;53.05;38.99;76.80;;
1754;Laerm;58380;48.312;9.246;2023-05-10T09:03:56;52.98;42.06;77.30;;
1754;Laerm;58380;48.312;9.246;2023-05-10T09:06:21;52.99;41.34;73.97;;
1754;Laerm;58380;48.312;9.246;2023-05-10T09:08:47;52.96;39.20;75.89;;
1754;Laerm;58380;48.312;9.246;2023-05-10T09:11:12;50.37;37.85;64.51;;
1754;Laerm;58380;48.312;9.246;2023-05-10T09:13:38;51.29;39.91;67.55;;
1754;Laerm;58380;48.312;9.246;2023-05-10T09:16:04;52.57;40.99;72.81;;
1754;Laerm;58380;48.312;9.246;2023-05-10T09:18:30;51.78;40.32;66.90;;
1754;Laerm;58380;48.312;9.246;2023-05-10T09:20:56;51.61;42.66;65.17;;
1754;Laerm;58380;48.312;9.246;2023-05-10T09:23:21;51.74;39.69;65.78;;
1754;Laerm;58380;48.312;9.246;2023-05-10T09:25:47;52.89;42.56;74.64;;
1754;Laerm;58380;48.312;9.246;2023-05-10T09:28:12;48.07;39.45;64.07;;
1754;Laerm;58380;48.312;9.246;2023-05-10T09:30:38;51.49;40.46;71.58;;
1754;Laerm;58380;48.312;9.246;2023-05-10T09:33:04;51.37;37.90;66.86;;
1754;Laerm;58380;48.312;9.246;2023-05-10T09:35:32;45.88;35.14;64.52;;
1754;Laerm;58380;48.312;9.246;2023-05-10T09:38:04;46.67;39.05;60.96;;
1754;Laerm;58380;48.312;9.246;2023-05-10T09:40:31;46.91;36.34;63.19;;
1754;Laerm;58380;48.312;9.246;2023-05-10T09:43:00;51.30;39.99;79.49;;
1754;Laerm;58380;48.312;9.246;2023-05-10T09:45:31;48.24;37.44;69.70;;
1754;Laerm;58380;48.312;9.246;2023-05-10T09:48:00;50.43;38.94;70.03;;
1754;Laerm;58380;48.312;9.246;2023-05-10T09:50:26;51.89;34.20;75.28;;
1754;Laerm;58380;48.312;9.246;2023-05-10T09:52:53;49.93;38.03;71.05;;
1754;Laerm;58380;48.312;9.246;2023-05-10T09:58:06;55.96;37.26;83.10;;
1754;Laerm;58380;48.312;9.246;2023-05-10T10:00:38;61.01;38.93;85.84;;
1754;Laerm;58380;48.312;9.246;2023-05-10T10:03:04;58.09;41.13;81.38;;
1754;Laerm;58380;48.312;9.246;2023-05-10T10:05:32;54.55;39.55;77.27;;
1754;Laerm;58380;48.312;9.246;2023-05-10T10:08:00;54.60;34.86;77.84;;
1754;Laerm;58380;48.312;9.246;2023-05-10T10:10:27;52.42;38.86;71.75;;
1754;Laerm;58380;48.312;9.246;2023-05-10T10:12:53;53.01;36.72;83.31;;
1754;Laerm;58380;48.312;9.246;2023-05-10T10:15:21;51.22;39.09;78.09;;
1754;Laerm;58380;48.312;9.246;2023-05-10T10:17:48;50.02;36.76;75.50;;
1754;Laerm;58380;48.312;9.246;2023-05-10T10:20:15;50.82;37.17;78.21;;
1754;Laerm;58380;48.312;9.246;2023-05-10T10:22:41;54.04;34.15;84.01;;
1754;Laerm;58380;48.312;9.246;2023-05-10T10:25:08;55.44;33.74;87.68;;
1754;Laerm;58380;48.312;9.246;2023-05-10T10:30:35;57.37;37.60;90.82;;
1754;Laerm;58380;48.312;9.246;2023-05-10T10:33:38;58.38;37.56;83.67;;
1754;Laerm;58380;48.312;9.246;2023-05-10T10:36:06;70.16;39.72;93.99;;
1754;Laerm;58380;48.312;9.246;2023-05-10T10:41:29;66.01;38.07;94.16;;
1754;Laerm;58380;48.312;9.246;2023-05-10T10:52:32;48.37;37.99;72.23;;
1754;Laerm;58380;48.312;9.246;2023-05-10T10:57:31;47.75;39.91;66.42;;
1754;Laerm;58380;48.312;9.246;2023-05-10T11:02:45;53.37;37.37;79.40;;
1754;Laerm;58380;48.312;9.246;2023-05-10T11:05:33;51.54;38.45;79.11;;
1754;Laerm;58380;48.312;9.246;2023-05-10T11:08:20;55.22;40.47;82.86;;
1754;Laerm;58380;48.312;9.246;2023-05-10T11:11:04;53.49;38.02;79.54;;
1754;Laerm;58380;48.312;9.246;2023-05-10T11:13:45;49.69;41.55;67.23;;
1754;Laerm;58380;48.312;9.246;2023-05-10T11:16:23;56.08;37.47;85.76;;
1754;Laerm;58380;48.312;9.246;2023-05-10T11:19:05;56.88;37.50;85.60;;
1754;Laerm;58380;48.312;9.246;2023-05-10T11:21:34;47.82;35.98;66.36;;
1754;Laerm;58380;48.312;9.246;2023-05-10T11:24:16;50.55;37.46;62.74;;
1754;Laerm;58380;48.312;9.246;2023-05-10T11:26:42;48.32;36.45;60.70;;
1754;Laerm;58380;48.312;9.246;2023-05-10T11:29:08;49.55;42.00;63.55;;
1754;Laerm;58380;48.312;9.246;2023-05-10T11:31:34;49.93;40.73;65.65;;
1754;Laerm;58380;48.312;9.246;2023-05-10T11:34:01;49.43;40.59;68.16;;
1754;Laerm;58380;48.312;9.246;2023-05-10T11:36:29;48.68;39.83;66.60;;
1754;Laerm;58380;48.312;9.246;2023-05-10T11:38:57;48.81;39.53;65.26;;
1754;Laerm;58380;48.312;9.246;2023-05-10T11:41:24;49.33;41.60;67.17;;
1754;Laerm;58380;48.312;9.246;2023-05-10T11:43:52;54.83;42.48;80.41;;
1754;Laerm;58380;48.312;9.246;2023-05-10T11:46:23;49.39;42.96;66.18;;
1754;Laerm;58380;48.312;9.246;2023-05-10T11:48:51;48.11;42.31;60.54;;
1754;Laerm;58380;48.312;9.246;2023-05-10T11:51:23;48.55;42.13;68.63;;
1754;Laerm;58380;48.312;9.246;2023-05-10T11:53:52;48.08;40.76;61.26;;
1754;Laerm;58380;48.312;9.246;2023-05-10T11:56:18;48.42;41.42;69.72;;
1754;Laerm;58380;48.312;9.246;2023-05-10T11:58:44;50.97;43.23;68.29;;
1754;Laerm;58380;48.312;9.246;2023-05-10T12:01:10;50.61;42.08;68.89;;
1754;Laerm;58380;48.312;9.246;2023-05-10T12:03:37;49.74;40.31;73.51;;
1754;Laerm;58380;48.312;9.246;2023-05-10T12:06:03;56.40;41.82;87.85;;
1754;Laerm;58380;48.312;9.246;2023-05-10T12:08:30;48.56;41.71;69.39;;
1754;Laerm;58380;48.312;9.246;2023-05-10T12:11:09;50.54;39.75;64.06;;
1754;Laerm;58380;48.312;9.246;2023-05-10T12:13:39;48.07;40.09;61.43;;
1754;Laerm;58380;48.312;9.246;2023-05-10T12:16:26;50.71;40.08;71.93;;
1754;Laerm;58380;48.312;9.246;2023-05-10T12:18:57;48.15;40.87;61.14;;
1754;Laerm;58380;48.312;9.246;2023-05-10T12:21:23;48.81;41.29;61.64;;
1754;Laerm;58380;48.312;9.246;2023-05-10T12:23:54;51.09;38.14;64.20;;
1754;Laerm;58380;48.312;9.246;2023-05-10T12:26:24;52.87;42.07;68.55;;
1754;Laerm;58380;48.312;9.246;2023-05-10T12:28:53;54.18;42.01;70.88;;
1754;Laerm;58380;48.312;9.246;2023-05-10T12:31:19;50.54;40.97;62.67;;
1754;Laerm;58380;48.312;9.246;2023-05-10T12:33:45;49.93;41.26;65.26;;
1754;Laerm;58380;48.312;9.246;2023-05-10T12:36:15;48.82;40.65;63.65;;
1754;Laerm;58380;48.312;9.246;2023-05-10T12:38:45;48.43;40.25;62.15;;
1754;Laerm;58380;48.312;9.246;2023-05-10T12:41:16;48.10;39.12;64.97;;
1754;Laerm;58380;48.312;9.246;2023-05-10T12:43:43;49.77;41.77;63.01;;
1754;Laerm;58380;48.312;9.246;2023-05-10T12:46:16;52.67;38.97;82.69;;
1754;Laerm;58380;48.312;9.246;2023-05-10T12:48:43;49.01;35.09;64.27;;
1754;Laerm;58380;48.312;9.246;2023-05-10T12:51:11;63.97;41.28;75.51;;
1754;Laerm;58380;48.312;9.246;2023-05-10T12:53:41;54.13;40.16;67.85;;
1754;Laerm;58380;48.312;9.246;2023-05-10T12:56:07;57.20;43.51;68.41;;
1754;Laerm;58380;48.312;9.246;2023-05-10T12:58:32;64.31;40.79;75.39;;
1754;Laerm;58380;48.312;9.246;2023-05-10T13:00:59;68.56;40.37;82.06;;
1754;Laerm;58380;48.312;9.246;2023-05-10T13:03:25;74.19;39.79;84.12;;
1754;Laerm;58380;48.312;9.246;2023-05-10T13:05:50;74.90;43.43;89.65;;
1754;Laerm;58380;48.312;9.246;2023-05-10T13:08:16;68.83;38.72;87.78;;
1754;Laerm;58380;48.312;9.246;2023-05-10T13:10:41;76.44;65.25;96.37;;
1754;Laerm;58380;48.312;9.246;2023-05-10T13:13:07;74.15;40.88;81.57;;
1754;Laerm;58380;48.312;9.246;2023-05-10T13:15:33;63.82;39.08;76.82;;
1754;Laerm;58380;48.312;9.246;2023-05-10T13:17:59;65.54;42.45;79.67;;
1754;Laerm;58380;48.312;9.246;2023-05-10T13:20:25;69.32;40.20;80.99;;
1754;Laerm;58380;48.312;9.246;2023-05-10T13:22:52;57.35;36.93;79.97;;
1754;Laerm;58380;48.312;9.246;2023-05-10T13:25:17;49.51;40.71;69.19;;
1754;Laerm;58380;48.312;9.246;2023-05-10T13:27:43;63.22;40.61;75.87;;
1754;Laerm;58380;48.312;9.246;2023-05-10T13:30:09;59.87;40.19;78.74;;
1754;Laerm;58380;48.312;9.246;2023-05-10T13:32:35;55.64;37.95;81.63;;
1754;Laerm;58380;48.312;9.246;2023-05-10T13:35:01;62.39;40.05;79.60;;
1754;Laerm;58380;48.312;9.246;2023-05-10T13:37:29;62.40;37.98;78.08;;
1754;Laerm;58380;48.312;9.246;2023-05-10T13:39:54;59.07;41.25;76.72;;
1754;Laerm;58380;48.312;9.246;2023-05-10T13:42:21;60.12;47.61;80.85;;
1754;Laerm;58380;48.312;9.246;2023-05-10T13:44:46;61.09;42.45;74.67;;
1754;Laerm;58380;48.312;9.246;2023-05-10T13:47:12;52.68;41.68;75.64;;
1754;Laerm;58380;48.312;9.246;2023-05-10T13:49:37;52.73;39.84;76.26;;
1754;Laerm;58380;48.312;9.246;2023-05-10T13:52:03;57.32;40.02;83.88;;
1754;Laerm;58380;48.312;9.246;2023-05-10T13:54:34;50.27;40.36;73.18;;
1754;Laerm;58380;48.312;9.246;2023-05-10T13:57:01;46.57;36.50;66.37;;
1754;Laerm;58380;48.312;9.246;2023-05-10T13:59:26;54.54;39.42;75.53;;
1754;Laerm;58380;48.312;9.246;2023-05-10T14:01:51;57.72;40.60;73.45;;
1754;Laerm;58380;48.312;9.246;2023-05-10T14:04:17;63.29;38.55;71.18;;
1754;Laerm;58380;48.312;9.246;2023-05-10T14:06:42;58.47;39.79;71.92;;
1754;Laerm;58380;48.312;9.246;2023-05-10T14:09:08;65.67;43.81;81.11;;
1754;Laerm;58380;48.312;9.246;2023-05-10T14:11:33;74.84;41.03;98.63;;
1754;Laerm;58380;48.312;9.246;2023-05-10T14:13:59;49.59;39.29;78.27;;
1754;Laerm;58380;48.312;9.246;2023-05-10T14:16:24;48.70;38.92;75.53;;
1754;Laerm;58380;48.312;9.246;2023-05-10T14:18:50;49.67;40.30;69.37;;
1754;Laerm;58380;48.312;9.246;2023-05-10T14:21:15;50.83;41.02;78.69;;
1754;Laerm;58380;48.312;9.246;2023-05-10T14:23:41;48.23;38.65;65.62;;
1754;Laerm;58380;48.312;9.246;2023-05-10T14:26:06;47.76;37.87;62.16;;
1754;Laerm;58380;48.312;9.246;2023-05-10T14:28:32;49.68;39.38;67.65;;
1754;Laerm;58380;48.312;9.246;2023-05-10T14:30:57;47.23;38.23;64.64;;
1754;Laerm;58380;48.312;9.246;2023-05-10T14:33:24;47.57;38.09;73.35;;
1754;Laerm;58380;48.312;9.246;2023-05-10T14:35:49;52.16;37.97;79.45;;
1754;Laerm;58380;48.312;9.246;2023-05-10T14:38:15;56.35;41.73;85.96;;
1754;Laerm;58380;48.312;9.246;2023-05-10T14:40:40;47.48;39.19;60.04;;
1754;Laerm;58380;48.312;9.246;2023-05-10T14:43:07;51.48;40.30;79.44;;
1754;Laerm;58380;48.312;9.246;2023-05-10T14:45:32;50.04;42.52;69.49;;
1754;Laerm;58380;48.312;9.246;2023-05-10T14:47:58;51.77;40.21;73.30;;
1754;Laerm;58380;48.312;9.246;2023-05-10T14:50:24;52.03;39.60;73.46;;
1754;Laerm;58380;48.312;9.246;2023-05-10T14:52:49;48.51;38.72;66.82;;
1754;Laerm;58380;48.312;9.246;2023-05-10T14:55:15;50.69;40.78;76.62;;
1754;Laerm;58380;48.312;9.246;2023-05-10T14:57:41;54.14;36.95;78.43;;
1754;Laerm;58380;48.312;9.246;2023-05-10T15:00:07;58.88;39.68;87.91;;
1754;Laerm;58380;48.312;9.246;2023-05-10T15:02:32;58.56;37.56;86.71;;
1754;Laerm;58380;48.312;9.246;2023-05-10T15:04:58;66.09;41.38;97.50;;
1754;Laerm;58380;48.312;9.246;2023-05-10T15:07:24;70.60;40.22;102.94;;
1754;Laerm;58380;48.312;9.246;2023-05-10T15:09:50;59.66;38.67;85.07;;
1754;Laerm;58380;48.312;9.246;2023-05-10T15:12:17;64.73;38.03;93.24;;
1754;Laerm;58380;48.312;9.246;2023-05-10T15:14:42;51.29;41.36;74.36;;
1754;Laerm;58380;48.312;9.246;2023-05-10T15:17:08;76.97;38.92;108.54;;
1754;Laerm;58380;48.312;9.246;2023-05-10T15:19:33;46.95;36.41;68.95;;
1754;Laerm;58380;48.312;9.246;2023-05-10T15:21:59;52.02;38.59;76.71;;
1754;Laerm;58380;48.312;9.246;2023-05-10T15:24:25;52.95;39.13;82.93;;
1754;Laerm;58380;48.312;9.246;2023-05-10T15:26:50;50.67;35.91;83.17;;
1754;Laerm;58380;48.312;9.246;2023-05-10T15:29:15;52.39;37.93;77.33;;
1754;Laerm;58380;48.312;9.246;2023-05-10T15:31:46;52.55;36.87;72.35;;
1754;Laerm;58380;48.312;9.246;2023-05-10T15:34:13;47.68;38.25;75.47;;
1754;Laerm;58380;48.312;9.246;2023-05-10T15:36:39;45.30;35.62;56.71;;
1754;Laerm;58380;48.312;9.246;2023-05-10T15:39:04;46.80;38.70;58.76;;
1754;Laerm;58380;48.312;9.246;2023-05-10T15:41:30;46.32;36.59;70.31;;
1754;Laerm;58380;48.312;9.246;2023-05-10T15:43:55;45.85;38.12;56.82;;
1754;Laerm;58380;48.312;9.246;2023-05-10T15:46:22;47.93;38.59;60.91;;
1754;Laerm;58380;48.312;9.246;2023-05-10T15:48:47;47.53;36.66;58.26;;
1754;Laerm;58380;48.312;9.246;2023-05-10T15:51:12;45.70;35.70;56.76;;
1754;Laerm;58380;48.312;9.246;2023-05-10T15:53:38;51.62;40.56;73.26;;
1754;Laerm;58380;48.312;9.246;2023-05-10T15:56:04;55.03;36.04;80.99;;
1754;Laerm;58380;48.312;9.246;2023-05-10T15:58:30;48.51;38.57;64.09;;
1754;Laerm;58380;48.312;9.246;2023-05-10T16:00:56;45.63;36.72;65.70;;
1754;Laerm;58380;48.312;9.246;2023-05-10T16:03:22;58.34;38.33;90.11;;
1754;Laerm;58380;48.312;9.246;2023-05-10T16:05:47;55.38;39.02;83.42;;
1754;Laerm;58380;48.312;9.246;2023-05-10T16:08:13;69.39;35.79;95.54;;
1754;Laerm;58380;48.312;9.246;2023-05-10T16:10:38;69.26;34.70;92.30;;
1754;Laerm;58380;48.312;9.246;2023-05-10T16:13:04;52.01;36.10;78.83;;
1754;Laerm;58380;48.312;9.246;2023-05-10T16:15:30;53.93;35.11;82.09;;
1754;Laerm;58380;48.312;9.246;2023-05-10T16:17:55;53.37;36.16;76.66;;
1754;Laerm;58380;48.312;9.246;2023-05-10T16:20:21;58.04;37.48;87.01;;
1754;Laerm;58380;48.312;9.246;2023-05-10T16:22:47;48.48;36.85;72.06;;
1754;Laerm;58380;48.312;9.246;2023-05-10T16:25:12;58.38;36.37;88.99;;
1754;Laerm;58380;48.312;9.246;2023-05-10T16:27:38;50.10;37.32;71.66;;
1754;Laerm;58380;48.312;9.246;2023-05-10T16:30:04;57.31;38.66;89.78;;
1754;Laerm;58380;48.312;9.246;2023-05-10T16:32:30;49.12;35.08;62.53;;
1754;Laerm;58380;48.312;9.246;2023-05-10T16:34:55;50.72;38.38;65.73;;
1754;Laerm;58380;48.312;9.246;2023-05-10T16:37:20;48.72;37.94;64.51;;
1754;Laerm;58380;48.312;9.246;2023-05-10T16:39:46;51.47;38.99;67.55;;
1754;Laerm;58380;48.312;9.246;2023-05-10T16:42:12;44.40;33.06;58.60;;
1754;Laerm;58380;48.312;9.246;2023-05-10T16:44:37;46.47;34.12;58.03;;
1754;Laerm;58380;48.312;9.246;2023-05-10T16:47:03;48.54;36.52;57.51;;
1754;Laerm;58380;48.312;9.246;2023-05-10T16:49:28;44.87;35.57;54.33;;
1754;Laerm;58380;48.312;9.246;2023-05-10T16:51:54;47.13;34.68;63.29;;
1754;Laerm;58380;48.312;9.246;2023-05-10T16:54:19;44.44;36.02;61.06;;
1754;Laerm;58380;48.312;9.246;2023-05-10T16:56:46;45.70;33.99;62.79;;
1754;Laerm;58380;48.312;9.246;2023-05-10T16:59:11;46.15;35.76;60.37;;
1754;Laerm;58380;48.312;9.246;2023-05-10T17:01:37;50.09;37.10;66.31;;
1754;Laerm;58380;48.312;9.246;2023-05-10T17:04:02;47.96;37.07;65.64;;
1754;Laerm;58380;48.312;9.246;2023-05-10T17:06:28;46.66;33.78;61.30;;
1754;Laerm;58380;48.312;9.246;2023-05-10T17:08:53;45.19;37.85;56.35;;
1754;Laerm;58380;48.312;9.246;2023-05-10T17:11:19;50.55;35.26;72.40;;
1754;Laerm;58380;48.312;9.246;2023-05-10T17:13:46;45.62;36.74;56.65;;
1754;Laerm;58380;48.312;9.246;2023-05-10T17:16:11;44.95;38.08;58.90;;
1754;Laerm;58380;48.312;9.246;2023-05-10T17:18:37;47.38;34.19;62.08;;
1754;Laerm;58380;48.312;9.246;2023-05-10T17:21:03;48.56;37.23;71.62;;
1754;Laerm;58380;48.312;9.246;2023-05-10T17:23:28;46.22;35.79;59.27;;
1754;Laerm;58380;48.312;9.246;2023-05-10T17:25:54;44.68;32.63;56.87;;
1754;Laerm;58380;48.312;9.246;2023-05-10T17:28:20;43.81;32.17;57.75;;
1754;Laerm;58380;48.312;9.246;2023-05-10T17:30:45;45.28;37.29;60.21;;
1754;Laerm;58380;48.312;9.246;2023-05-10T17:33:10;44.87;34.90;59.58;;
1754;Laerm;58380;48.312;9.246;2023-05-10T17:35:36;43.96;34.11;55.79;;
1754;Laerm;58380;48.312;9.246;2023-05-10T17:38:01;43.62;33.38;56.78;;
1754;Laerm;58380;48.312;9.246;2023-05-10T17:40:27;47.40;33.62;59.84;;
1754;Laerm;58380;48.312;9.246;2023-05-10T17:42:52;46.14;34.82;62.40;;
1754;Laerm;58380;48.312;9.246;2023-05-10T17:45:18;44.69;31.88;57.45;;
1754;Laerm;58380;48.312;9.246;2023-05-10T17:47:43;46.60;36.80;66.73;;
1754;Laerm;58380;48.312;9.246;2023-05-10T17:50:09;46.40;35.57;58.72;;
1754;Laerm;58380;48.312;9.246;2023-05-10T17:52:34;45.84;33.64;59.18;;
1754;Laerm;58380;48.312;9.246;2023-05-10T17:55:00;49.96;34.82;75.85;;
1754;Laerm;58380;48.312;9.246;2023-05-10T17:57:26;46.80;35.54;65.10;;
1754;Laerm;58380;48.312;9.246;2023-05-10T17:59:52;51.28;35.65;66.83;;
1754;Laerm;58380;48.312;9.246;2023-05-10T18:02:17;48.21;35.26;65.17;;
1754;Laerm;58380;48.312;9.246;2023-05-10T18:04:43;48.00;34.28;61.43;;
1754;Laerm;58380;48.312;9.246;2023-05-10T18:07:08;45.77;35.36;56.38;;
1754;Laerm;58380;48.312;9.246;2023-05-10T18:09:34;49.30;37.12;66.27;;
1754;Laerm;58380;48.312;9.246;2023-05-10T18:12:03;47.77;34.28;65.66;;
1754;Laerm;58380;48.312;9.246;2023-05-10T18:14:30;46.29;35.04;66.71;;
1754;Laerm;58380;48.312;9.246;2023-05-10T18:16:55;49.19;39.02;62.89;;
1754;Laerm;58380;48.312;9.246;2023-05-10T18:19:21;46.69;36.07;57.54;;
1754;Laerm;58380;48.312;9.246;2023-05-10T18:21:49;45.84;36.23;55.95;;
1754;Laerm;58380;48.312;9.246;2023-05-10T18:24:15;46.34;37.02;55.25;;
1754;Laerm;58380;48.312;9.246;2023-05-10T18:26:42;46.64;33.54;65.13;;
1754;Laerm;58380;48.312;9.246;2023-05-10T18:29:07;44.28;35.40;56.21;;
1754;Laerm;58380;48.312;9.246;2023-05-10T18:31:33;45.39;35.87;56.00;;
1754;Laerm;58380;48.312;9.246;2023-05-10T18:33:58;42.51;33.57;53.96;;
1754;Laerm;58380;48.312;9.246;2023-05-10T18:36:24;44.84;34.51;59.04;;
1754;Laerm;58380;48.312;9.246;2023-05-10T18:38:49;43.23;34.46;54.91;;
1754;Laerm;58380;48.312;9.246;2023-05-10T18:41:15;43.79;34.39;58.28;;
1754;Laerm;58380;48.312;9.246;2023-05-10T18:43:41;44.97;36.14;60.35;;
1754;Laerm;58380;48.312;9.246;2023-05-10T18:46:07;43.44;33.48;53.48;;
1754;Laerm;58380;48.312;9.246;2023-05-10T18:48:33;44.75;35.74;55.60;;
1754;Laerm;58380;48.312;9.246;2023-05-10T18:50:58;44.78;35.14;58.38;;
1754;Laerm;58380;48.312;9.246;2023-05-10T18:53:24;44.13;37.06;53.04;;
1754;Laerm;58380;48.312;9.246;2023-05-10T18:55:57;44.04;36.24;54.61;;
1754;Laerm;58380;48.312;9.246;2023-05-10T18:58:23;47.11;33.13;66.47;;
1754;Laerm;58380;48.312;9.246;2023-05-10T19:00:51;44.46;34.04;59.29;;
1754;Laerm;58380;48.312;9.246;2023-05-10T19:03:17;46.02;35.43;58.58;;
1754;Laerm;58380;48.312;9.246;2023-05-10T19:05:42;45.98;36.53;56.04;;
1754;Laerm;58380;48.312;9.246;2023-05-10T19:08:08;49.44;36.10;71.62;;
1754;Laerm;58380;48.312;9.246;2023-05-10T19:10:33;43.04;33.42;54.37;;
1754;Laerm;58380;48.312;9.246;2023-05-10T19:12:59;45.65;32.04;61.85;;
1754;Laerm;58380;48.312;9.246;2023-05-10T19:15:24;45.02;33.57;60.72;;
1754;Laerm;58380;48.312;9.246;2023-05-10T19:17:49;42.54;32.95;58.68;;
1754;Laerm;58380;48.312;9.246;2023-05-10T19:20:15;41.01;32.11;54.21;;
1754;Laerm;58380;48.312;9.246;2023-05-10T19:22:40;40.13;32.51;53.40;;
1754;Laerm;58380;48.312;9.246;2023-05-10T19:25:06;38.52;32.72;51.02;;
1754;Laerm;58380;48.312;9.246;2023-05-10T19:27:31;43.04;31.48;54.59;;
1754;Laerm;58380;48.312;9.246;2023-05-10T19:29:58;38.42;31.02;51.58;;
1754;Laerm;58380;48.312;9.246;2023-05-10T19:32:23;41.49;34.44;53.63;;
1754;Laerm;58380;48.312;9.246;2023-05-10T19:34:48;37.75;32.54;46.40;;
1754;Laerm;58380;48.312;9.246;2023-05-10T19:37:14;39.38;33.09;49.17;;
1754;Laerm;58380;48.312;9.246;2023-05-10T19:39:39;39.86;30.57;50.87;;
1754;Laerm;58380;48.312;9.246;2023-05-10T19:42:05;36.71;29.93;48.08;;
1754;Laerm;58380;48.312;9.246;2023-05-10T19:44:30;37.32;30.13;45.79;;
1754;Laerm;58380;48.312;9.246;2023-05-10T19:46:56;38.93;33.54;48.04;;
1754;Laerm;58380;48.312;9.246;2023-05-10T19:49:22;40.50;33.44;47.14;;
1754;Laerm;58380;48.312;9.246;2023-05-10T19:51:47;38.54;30.22;47.32;;
1754;Laerm;58380;48.312;9.246;2023-05-10T19:54:13;42.53;31.48;51.85;;
1754;Laerm;58380;48.312;9.246;2023-05-10T19:56:38;39.76;32.04;48.35;;
1754;Laerm;58380;48.312;9.246;2023-05-10T19:59:04;37.17;31.06;47.67;;
1754;Laerm;58380;48.312;9.246;2023-05-10T20:01:30;37.87;31.08;46.05;;
1754;Laerm;58380;48.312;9.246;2023-05-10T20:03:56;38.16;31.95;44.42;;
1754;Laerm;58380;48.312;9.246;2023-05-10T20:06:22;42.30;33.90;54.80;;
1754;Laerm;58380;48.312;9.246;2023-05-10T20:08:47;44.91;37.88;56.37;;
1754;Laerm;58380;48.312;9.246;2023-05-10T20:11:13;54.51;40.78;78.94;;
1754;Laerm;58380;48.312;9.246;2023-05-10T20:13:38;44.35;33.18;53.31;;
1754;Laerm;58380;48.312;9.246;2023-05-10T20:16:03;40.57;33.52;47.53;;
1754;Laerm;58380;48.312;9.246;2023-05-10T20:18:30;40.61;33.20;58.98;;
1754;Laerm;58380;48.312;9.246;2023-05-10T20:20:58;41.56;33.01;48.84;;
1754;Laerm;58380;48.312;9.246;2023-05-10T20:23:25;43.66;32.61;70.59;;
1754;Laerm;58380;48.312;9.246;2023-05-10T20:25:50;43.87;33.41;69.37;;
1754;Laerm;58380;48.312;9.246;2023-05-10T20:28:21;47.93;35.14;74.86;;
1754;Laerm;58380;48.312;9.246;2023-05-10T20:30:49;39.32;32.33;57.80;;
1754;Laerm;58380;48.312;9.246;2023-05-10T20:33:15;42.80;31.40;67.49;;
1754;Laerm;58380;48.312;9.246;2023-05-10T20:35:41;42.25;34.87;56.80;;
1754;Laerm;58380;48.312;9.246;2023-05-10T20:38:06;39.65;32.51;52.23;;
1754;Laerm;58380;48.312;9.246;2023-05-10T20:40:32;42.73;34.84;49.47;;
1754;Laerm;58380;48.312;9.246;2023-05-10T20:42:58;43.68;34.95;51.93;;
1754;Laerm;58380;48.312;9.246;2023-05-10T20:45:23;36.77;32.19;44.61;;
1754;Laerm;58380;48.312;9.246;2023-05-10T20:47:48;37.90;31.34;52.47;;
1754;Laerm;58380;48.312;9.246;2023-05-10T20:50:14;40.87;32.51;51.08;;
1754;Laerm;58380;48.312;9.246;2023-05-10T20:52:39;41.82;32.30;50.31;;
1754;Laerm;58380;48.312;9.246;2023-05-10T20:55:06;41.19;32.18;52.18;;
1754;Laerm;58380;48.312;9.246;2023-05-10T20:57:31;39.15;31.78;55.02;;
1754;Laerm;58380;48.312;9.246;2023-05-10T20:59:57;44.68;34.79;54.13;;
1754;Laerm;58380;48.312;9.246;2023-05-10T21:02:22;49.14;31.63;60.85;;
1754;Laerm;58380;48.312;9.246;2023-05-10T21:04:47;40.05;31.56;48.53;;
1754;Laerm;58380;48.312;9.246;2023-05-10T21:07:13;44.61;31.52;60.66;;
1754;Laerm;58380;48.312;9.246;2023-05-10T21:09:38;42.04;33.24;50.30;;
1754;Laerm;58380;48.312;9.246;2023-05-10T21:12:04;38.22;30.79;48.00;;
1754;Laerm;58380;48.312;9.246;2023-05-10T21:14:29;37.51;30.80;48.58;;
1754;Laerm;58380;48.312;9.246;2023-05-10T21:16:55;34.46;30.69;43.71;;
1754;Laerm;58380;48.312;9.246;2023-05-10T21:19:21;38.18;30.68;46.43;;
1754;Laerm;58380;48.312;9.246;2023-05-10T21:21:46;37.09;31.04;46.88;;
1754;Laerm;58380;48.312;9.246;2023-05-10T21:24:12;39.94;31.74;50.51;;
1754;Laerm;58380;48.312;9.246;2023-05-10T21:26:38;38.47;31.56;50.98;;
